Time,TemperatureF,DewpointF,PressureIn,WindDirection,WindDirectionDegrees,WindSpeedMPH,WindSpeedGustMPH,Humidity,HourlyPrecipIn,Conditions,Clouds,dailyrainin,SoftwareType,DateUTC
2013-07-20 00:33:00,64.0,62.0,29.88,SSE,150,6.0,-999.0,92,0.00,,,-99.99,,2013-07-20 07:33:00,
2013-07-20 00:44:00,64.0,62.0,29.88,SSE,150,6.0,-999.0,92,0.00,,,-99.99,,2013-07-20 07:44:00,
2013-07-20 00:53:00,64.0,62.0,29.88,SSE,150,6.0,-999.0,92,0.00,,,-99.99,,2013-07-20 07:53:00,
2013-07-20 01:44:00,64.0,62.0,29.87,North,0,0.0,-999.0,92,0.00,,,-99.99,,2013-07-20 08:44:00,
2013-07-20 01:52:00,64.0,62.0,29.87,North,0,0.0,-999.0,92,0.00,,,-99.99,,2013-07-20 08:52:00,
2013-07-20 02:33:00,64.0,62.0,29.87,ESE,120,1.0,-999.0,93,0.00,,,-99.99,,2013-07-20 09:33:00,
2013-07-20 02:43:00,64.0,62.0,29.87,ESE,120,1.0,-999.0,93,0.00,,,-99.99,,2013-07-20 09:43:00,
2013-07-20 02:53:00,64.0,62.0,29.87,ESE,120,1.0,-999.0,93,0.00,,,-99.99,,2013-07-20 09:53:00,
2013-07-20 03:32:00,64.0,62.0,29.86,SW,230,1.0,-999.0,94,0.00,,,-99.99,,2013-07-20 10:32:00,
2013-07-20 03:42:00,64.0,62.0,29.86,SW,230,1.0,-999.0,94,0.00,,,-99.99,,2013-07-20 10:42:00,
2013-07-20 03:52:00,64.0,62.0,29.86,SW,230,1.0,-999.0,94,0.00,,,-99.99,,2013-07-20 10:52:00,
2013-07-20 04:32:00,64.0,62.0,29.85,North,0,0.0,-999.0,94,0.00,,,-99.99,,2013-07-20 11:32:00,
2013-07-20 04:43:00,64.0,62.0,29.85,North,0,0.0,-999.0,94,0.00,,,-99.99,,2013-07-20 11:43:00,
2013-07-20 04:52:00,64.0,62.0,29.85,North,0,0.0,-999.0,94,0.00,,,-99.99,,2013-07-20 11:52:00,
2013-07-20 05:32:00,64.0,62.0,29.84,North,0,0.0,-999.0,94,0.00,,,-99.99,,2013-07-20 12:32:00,
2013-07-20 05:52:00,64.0,62.0,29.84,North,0,0.0,-999.0,94,0.00,,,-99.99,,2013-07-20 12:52:00,
2013-07-20 06:32:00,64.0,62.0,29.85,ESE,110,2.0,-999.0,94,0.00,,,-99.99,,2013-07-20 13:32:00,
2013-07-20 06:43:00,64.0,62.0,29.85,ESE,110,2.0,-999.0,94,0.00,,,-99.99,,2013-07-20 13:43:00,
2013-07-20 06:53:00,64.0,62.0,29.85,ESE,110,2.0,-999.0,94,0.00,,,-99.99,,2013-07-20 13:53:00,
2013-07-20 07:32:00,64.0,63.0,29.87,East,90,3.0,-999.0,95,0.00,,,-99.99,,2013-07-20 14:32:00,
2013-07-20 07:43:00,64.0,63.0,29.87,East,90,3.0,-999.0,95,0.00,,,-99.99,,2013-07-20 14:43:00,
2013-07-20 07:53:00,64.0,63.0,29.87,East,90,3.0,-999.0,95,0.00,,,-99.99,,2013-07-20 14:53:00,
2013-07-20 08:33:00,64.0,63.0,29.88,SSE,150,1.0,-999.0,95,0.00,,,-99.99,,2013-07-20 15:33:00,
2013-07-20 08:44:00,64.0,63.0,29.88,SSE,150,1.0,-999.0,95,0.00,,,-99.99,,2013-07-20 15:44:00,
2013-07-20 08:52:00,64.0,63.0,29.88,SSE,150,1.0,-999.0,95,0.00,,,-99.99,,2013-07-20 15:52:00,
2013-07-20 09:32:00,64.0,62.0,29.88,SSE,150,1.0,-999.0,94,0.00,,,-99.99,,2013-07-20 16:32:00,
2013-07-20 09:43:00,64.0,62.0,29.88,SSE,150,1.0,-999.0,94,0.00,,,-99.99,,2013-07-20 16:43:00,
2013-07-20 09:52:00,64.0,62.0,29.88,SSE,150,1.0,-999.0,94,0.00,,,-99.99,,2013-07-20 16:52:00,
2013-07-20 10:43:00,65.0,63.0,29.87,SE,140,3.0,-999.0,92,0.00,,,-99.99,,2013-07-20 17:43:00,
2013-07-20 10:53:00,65.0,63.0,29.87,SE,140,3.0,-999.0,92,0.00,,,-99.99,,2013-07-20 17:53:00,
2013-07-20 11:43:00,68.0,64.0,29.87,East,100,1.0,-999.0,88,0.00,,,-99.99,,2013-07-20 18:43:00,
2013-07-20 12:43:00,68.0,64.0,29.87,East,80,1.0,-999.0,87,0.00,,,-99.99,,2013-07-20 19:43:00,
2013-07-20 12:53:00,68.0,64.0,29.87,East,80,1.0,-999.0,87,0.00,,,-99.99,,2013-07-20 19:53:00,
2013-07-20 13:45:00,69.0,65.0,29.87,North,360,1.0,-999.0,86,0.00,,,-99.99,,2013-07-20 20:45:00,
2013-07-20 13:54:00,69.0,65.0,29.87,North,360,1.0,-999.0,86,0.00,,,-99.99,,2013-07-20 20:54:00,
2013-07-20 14:33:00,68.0,64.0,29.86,East,80,2.0,-999.0,87,0.00,,,-99.99,,2013-07-20 21:33:00,
2013-07-20 14:44:00,68.0,64.0,29.86,East,80,2.0,-999.0,87,0.00,,,-99.99,,2013-07-20 21:44:00,
2013-07-20 14:54:00,68.0,64.0,29.86,East,80,2.0,-999.0,87,0.00,,,-99.99,,2013-07-20 21:54:00,
2013-07-20 15:33:00,68.0,64.0,29.86,West,260,1.0,-999.0,87,0.00,,,-99.99,,2013-07-20 22:33:00,
2013-07-20 15:45:00,68.0,64.0,29.86,West,260,1.0,-999.0,87,0.00,,,-99.99,,2013-07-20 22:45:00,
2013-07-20 15:52:00,68.0,64.0,29.86,West,260,1.0,-999.0,87,0.00,,,-99.99,,2013-07-20 22:52:00,
2013-07-20 15:54:00,67.0,64.0,29.82,ENE,70,1.0,-999.0,89,0.00,,,-99.99,,2013-07-20 22:54:00,
2013-07-20 16:36:00,67.0,64.0,29.82,ENE,70,1.0,-999.0,89,0.00,,,-99.99,,2013-07-20 23:36:00,
2013-07-20 16:43:00,67.0,64.0,29.82,ENE,70,1.0,-999.0,89,0.00,,,-99.99,,2013-07-20 23:43:00,
2013-07-20 17:43:00,67.0,63.0,29.82,ESE,110,1.0,-999.0,88,0.00,,,-99.99,,2013-07-21 00:43:00,
2013-07-20 17:54:00,67.0,63.0,29.82,ESE,110,1.0,-999.0,88,0.00,,,-99.99,,2013-07-21 00:54:00,
2013-07-20 18:35:00,66.0,63.0,29.81,East,90,2.0,-999.0,90,0.00,,,-99.99,,2013-07-21 01:35:00,
2013-07-20 18:44:00,-999.0,-99.9,29.81,East,90,2.0,-999.0,-999,-99.99,,,-99.99,,2013-07-21 01:44:00,
2013-07-20 18:54:00,66.0,63.0,29.81,East,90,2.0,-999.0,90,0.00,,,-99.99,,2013-07-21 01:54:00,
2013-07-20 19:35:00,65.0,62.0,29.82,WSW,250,3.0,-999.0,90,0.00,,,-99.99,,2013-07-21 02:35:00,
2013-07-20 19:43:00,65.0,62.0,29.82,WSW,250,3.0,-999.0,90,0.00,,,-99.99,,2013-07-21 02:43:00,
2013-07-20 20:33:00,64.0,61.0,29.82,North,0,0.0,-999.0,91,0.00,,,-99.99,,2013-07-21 03:33:00,
2013-07-20 20:44:00,64.0,61.0,29.82,North,0,0.0,-999.0,91,0.00,,,-99.99,,2013-07-21 03:44:00,
2013-07-20 20:53:00,64.0,61.0,29.82,North,0,0.0,-999.0,91,0.00,,,-99.99,,2013-07-21 03:53:00,
2013-07-20 21:32:00,64.0,62.0,29.83,North,0,0.0,-999.0,93,0.00,,,-99.99,,2013-07-21 04:32:00,
2013-07-20 21:43:00,64.0,62.0,29.83,North,0,0.0,-999.0,93,0.00,,,-99.99,,2013-07-21 04:43:00,
2013-07-20 21:53:00,64.0,62.0,29.83,North,0,0.0,-999.0,93,0.00,,,-99.99,,2013-07-21 04:53:00,
2013-07-20 22:32:00,64.0,62.0,29.85,North,0,0.0,-999.0,93,0.00,,,-99.99,,2013-07-21 05:32:00,
2013-07-20 22:42:00,64.0,62.0,29.85,North,0,0.0,-999.0,93,0.00,,,-99.99,,2013-07-21 05:42:00,
2013-07-20 22:52:00,64.0,62.0,29.85,North,0,0.0,-999.0,93,0.00,,,-99.99,,2013-07-21 05:52:00,
2013-07-20 23:32:00,64.0,62.0,29.84,North,0,0.0,-999.0,94,0.00,,,-99.99,,2013-07-21 06:32:00,
2013-07-20 23:42:00,64.0,62.0,29.84,North,0,0.0,-999.0,94,0.00,,,-99.99,,2013-07-21 06:42:00,
2013-07-20 23:52:00,64.0,62.0,29.84,North,0,0.0,-999.0,94,0.00,,,-99.99,,2013-07-21 06:52:00,